createdAt,value
2017-06-28T00:00:44.043Z,24.84
2017-06-28T00:01:54.273Z,24.76
2017-06-28T00:03:04.516Z,24.73
2017-06-28T00:04:13.836Z,24.73
2017-06-28T00:05:23.446Z,24.73
2017-06-28T00:06:33.655Z,24.68
2017-06-28T00:07:43.863Z,24.68
2017-06-28T00:08:54.088Z,24.68
2017-06-28T00:10:03.679Z,24.58
2017-06-28T00:11:13.900Z,24.67
2017-06-28T00:12:24.109Z,24.68
2017-06-28T00:13:34.017Z,24.68
2017-06-28T00:14:43.520Z,24.68
2017-06-28T00:15:53.746Z,24.73
2017-06-28T00:17:03.661Z,24.67
2017-06-28T00:18:13.581Z,24.67
2017-06-28T00:19:23.815Z,24.65
2017-06-28T00:20:33.425Z,24.73
2017-06-28T00:21:43.655Z,24.65
2017-06-28T00:22:53.550Z,24.64
2017-06-28T00:24:03.771Z,24.68
2017-06-28T00:25:13.984Z,24.77
2017-06-28T00:26:23.896Z,24.69
2017-06-28T00:27:34.098Z,24.73
2017-06-28T00:28:44.004Z,24.73
2017-06-28T00:29:53.905Z,24.73
2017-06-28T00:31:03.805Z,24.69
2017-06-28T00:32:14.025Z,24.67
2017-06-28T00:33:24.256Z,24.71
2017-06-28T00:34:34.160Z,24.71
2017-06-28T00:35:44.069Z,24.68
2017-06-28T00:36:53.992Z,24.71
2017-06-28T00:38:03.904Z,24.67
2017-06-28T00:39:14.111Z,24.62
2017-06-28T00:40:23.726Z,24.67
2017-06-28T00:41:33.936Z,24.64
2017-06-28T00:42:44.148Z,24.64
2017-06-28T00:43:53.739Z,24.64
2017-06-28T00:45:03.655Z,24.71
2017-06-28T00:46:13.554Z,24.68
2017-06-28T00:47:23.456Z,24.67
2017-06-28T00:48:33.387Z,24.65
2017-06-28T00:49:43.619Z,24.65
2017-06-28T00:50:52.919Z,24.57
2017-06-28T00:52:02.827Z,24.68
2017-06-28T00:53:12.452Z,24.64
2017-06-28T00:54:22.386Z,24.67
2017-06-28T00:55:31.695Z,24.64
2017-06-28T00:56:41.625Z,24.64
2017-06-28T00:57:51.551Z,24.62
2017-06-28T00:59:01.155Z,24.67
2017-06-28T01:00:11.366Z,24.61
2017-06-28T01:01:21.270Z,24.71
2017-06-28T01:02:31.490Z,24.69
2017-06-28T01:03:41.090Z,24.69
2017-06-28T01:04:50.702Z,24.68
2017-06-28T01:06:00.924Z,24.67
2017-06-28T01:07:09.911Z,24.69
2017-06-28T01:08:19.924Z,24.68
2017-06-28T01:09:29.833Z,24.71
2017-06-28T01:10:39.744Z,24.61
2017-06-28T01:11:49.956Z,24.58
2017-06-28T01:12:59.249Z,24.64
2017-06-28T01:14:09.454Z,24.67
2017-06-28T01:15:19.354Z,24.58
2017-06-28T01:16:29.275Z,24.68
2017-06-28T01:19:59.589Z,24.65
2017-06-28T01:21:09.556Z,24.61
2017-06-28T01:22:19.778Z,24.53
2017-06-28T01:23:29.062Z,24.53
2017-06-28T01:24:39.283Z,24.57
2017-06-28T01:25:48.980Z,24.58
2017-06-28T01:26:58.581Z,24.61
2017-06-28T01:28:08.852Z,24.5
2017-06-28T01:29:18.469Z,24.55
2017-06-28T01:30:28.080Z,24.61
2017-06-28T01:31:37.802Z,24.6
2017-06-28T01:32:48.077Z,24.58
2017-06-28T01:33:58.510Z,24.57
2017-06-28T01:35:08.113Z,24.61
2017-06-28T01:36:18.027Z,24.64
2017-06-28T01:37:27.621Z,24.68
2017-06-28T01:38:37.230Z,24.64
2017-06-28T01:39:47.152Z,24.62
2017-06-28T01:40:56.765Z,24.64
2017-06-28T01:42:06.365Z,24.62
2017-06-28T01:43:16.269Z,24.64
2017-06-28T01:44:26.186Z,24.57
2017-06-28T01:45:36.420Z,24.62
2017-06-28T01:46:46.320Z,24.62
2017-06-28T01:47:55.630Z,24.61
2017-06-28T01:49:05.657Z,24.65
2017-06-28T01:50:15.866Z,24.67
2017-06-28T01:51:25.452Z,24.62
2017-06-28T01:52:35.073Z,24.65
2017-06-28T01:53:44.991Z,24.6
2017-06-28T01:54:55.058Z,24.65
2017-06-28T01:56:04.356Z,24.64
2017-06-28T01:57:14.580Z,24.62
2017-06-28T01:58:25.152Z,24.61
2017-06-28T01:59:35.063Z,24.61
2017-06-28T02:00:45.322Z,24.57
2017-06-28T02:01:54.597Z,24.57
2017-06-28T02:03:04.224Z,24.57
2017-06-28T02:04:14.137Z,24.6
2017-06-28T02:05:24.364Z,24.57
2017-06-28T02:06:34.116Z,24.57
2017-06-28T02:07:43.711Z,24.57
2017-06-28T02:08:53.361Z,24.57
2017-06-28T02:10:03.268Z,24.6
2017-06-28T02:11:12.887Z,24.53
2017-06-28T02:12:22.892Z,24.57
2017-06-28T02:13:32.188Z,24.57
2017-06-28T02:14:42.389Z,24.55
2017-06-28T02:15:51.994Z,24.52
2017-06-28T02:17:02.204Z,24.49
2017-06-28T02:18:12.165Z,24.55
2017-06-28T02:19:21.810Z,24.52
2017-06-28T02:20:31.408Z,24.46
2017-06-28T02:21:41.321Z,24.49
2017-06-28T02:22:51.533Z,24.55
2017-06-28T02:24:01.229Z,24.46
2017-06-28T02:25:11.161Z,24.45
2017-06-28T02:26:21.065Z,24.49
2017-06-28T02:27:31.268Z,24.5
2017-06-28T02:28:41.174Z,24.46
2017-06-28T02:29:50.886Z,24.45
2017-06-28T02:31:00.803Z,24.42
2017-06-28T02:32:10.723Z,24.4
2017-06-28T02:33:20.320Z,24.46
2017-06-28T02:34:29.624Z,24.47
2017-06-28T02:35:39.638Z,24.46
2017-06-28T02:36:49.236Z,24.43
2017-06-28T02:37:59.144Z,24.42
2017-06-28T02:39:09.054Z,24.42
2017-06-28T02:40:19.269Z,24.4
2017-06-28T02:41:29.271Z,24.43
2017-06-28T02:42:39.177Z,24.37
2017-06-28T02:43:49.103Z,24.39
2017-06-28T02:44:59.017Z,24.39
2017-06-28T02:46:08.944Z,24.32
2017-06-28T02:47:19.259Z,24.47
2017-06-28T02:48:29.469Z,24.43
2017-06-28T02:49:39.692Z,24.46
2017-06-28T02:50:49.613Z,24.31
2017-06-28T02:51:59.535Z,24.45
2017-06-28T02:53:09.500Z,24.45
2017-06-28T02:54:19.099Z,24.39
2017-06-28T02:55:29.310Z,24.42
2017-06-28T02:56:39.537Z,24.37
2017-06-28T02:57:49.474Z,24.39
2017-06-28T02:59:00.107Z,24.4
2017-06-28T03:00:09.731Z,24.49
2017-06-28T03:01:19.656Z,24.42
2017-06-28T03:02:29.604Z,24.39
2017-06-28T03:03:39.527Z,24.43
2017-06-28T03:04:49.753Z,24.55
2017-06-28T03:05:59.978Z,24.46
2017-06-28T03:07:10.195Z,24.47
2017-06-28T03:08:20.110Z,24.42
2017-06-28T03:09:29.717Z,24.45
2017-06-28T03:10:39.419Z,24.45
2017-06-28T03:11:48.472Z,24.53
2017-06-28T03:12:58.697Z,24.52
2017-06-28T03:14:08.620Z,24.42
2017-06-28T03:15:17.605Z,24.49
2017-06-28T03:16:27.248Z,24.58
2017-06-28T03:17:37.163Z,24.47
2017-06-28T03:18:47.084Z,24.45
2017-06-28T03:19:57.003Z,24.46
2017-06-28T03:21:06.603Z,24.46
2017-06-28T03:22:16.609Z,24.5
2017-06-28T03:23:26.817Z,24.6
2017-06-28T03:24:36.731Z,24.5
2017-06-28T03:25:46.353Z,24.52
2017-06-28T03:26:56.560Z,24.53
2017-06-28T03:28:06.490Z,24.55
2017-06-28T03:29:16.701Z,24.62
2017-06-28T03:30:26.296Z,24.57
2017-06-28T03:31:36.508Z,24.6
2017-06-28T03:32:46.120Z,24.52
2017-06-28T03:33:56.030Z,24.57
2017-06-28T03:35:05.327Z,24.6
2017-06-28T03:36:14.320Z,24.57
2017-06-28T03:37:24.237Z,24.55
2017-06-28T03:38:34.145Z,24.62
2017-06-28T03:39:43.897Z,24.64
2017-06-28T03:40:53.805Z,24.61
2017-06-28T03:42:03.415Z,24.62
2017-06-28T03:43:13.635Z,24.61
2017-06-28T03:44:23.550Z,24.67
2017-06-28T03:45:33.804Z,24.64
2017-06-28T03:46:43.104Z,24.71
2017-06-28T03:47:53.030Z,24.62
2017-06-28T03:49:03.253Z,24.65
2017-06-28T03:50:12.878Z,24.71
2017-06-28T03:51:22.850Z,24.69
2017-06-28T03:52:32.463Z,24.76
2017-06-28T03:53:42.686Z,24.68
2017-06-28T03:54:52.276Z,24.76
2017-06-28T03:56:02.487Z,24.8
2017-06-28T03:57:12.088Z,24.76
2017-06-28T03:58:21.690Z,24.76
2017-06-28T03:59:31.913Z,24.77
2017-06-28T04:00:41.831Z,24.76
2017-06-28T04:01:51.424Z,24.83
2017-06-28T04:03:01.395Z,24.83
2017-06-28T04:04:11.599Z,24.73
2017-06-28T04:05:21.814Z,24.78
2017-06-28T04:06:31.722Z,24.83
2017-06-28T04:07:41.650Z,24.73
2017-06-28T04:08:51.664Z,24.77
2017-06-28T04:10:01.572Z,24.87
2017-06-28T04:11:11.176Z,24.76
2017-06-28T04:12:21.390Z,24.85
2017-06-28T04:13:30.681Z,24.8
2017-06-28T04:14:40.939Z,24.81
2017-06-28T04:15:50.553Z,24.8
2017-06-28T04:17:00.773Z,24.8
2017-06-28T04:18:10.390Z,24.77
2017-06-28T04:19:20.305Z,24.76
2017-06-28T04:20:29.996Z,24.76
2017-06-28T04:21:39.900Z,24.76
2017-06-28T04:22:49.199Z,24.81
2017-06-28T04:23:59.105Z,24.78
2017-06-28T04:25:09.310Z,24.78
2017-06-28T04:26:19.530Z,24.85
2017-06-28T04:27:28.821Z,24.84
2017-06-28T04:28:38.424Z,24.81
2017-06-28T04:29:48.033Z,24.8
2017-06-28T04:30:57.942Z,24.77
2017-06-28T04:32:07.950Z,24.87
2017-06-28T04:33:17.249Z,24.83
2017-06-28T04:34:27.846Z,24.77
2017-06-28T04:35:37.753Z,24.8
2017-06-28T04:36:47.357Z,24.77
2017-06-28T04:37:57.589Z,24.73
2017-06-28T04:39:07.510Z,24.68
2017-06-28T04:40:17.407Z,24.83
2017-06-28T04:41:27.317Z,24.73
2017-06-28T04:42:36.920Z,24.69
2017-06-28T04:43:47.192Z,24.71
2017-06-28T04:44:56.805Z,24.69
2017-06-28T04:46:06.708Z,24.64
2017-06-28T04:47:16.635Z,24.67
2017-06-28T04:48:26.837Z,24.58
2017-06-28T04:49:36.837Z,24.6
2017-06-28T04:50:47.043Z,24.55
2017-06-28T04:51:56.946Z,24.55
2017-06-28T04:53:06.546Z,24.53
2017-06-28T04:54:16.151Z,24.46
2017-06-28T04:55:26.482Z,24.39
2017-06-28T04:56:36.085Z,24.42
2017-06-28T04:57:46.299Z,24.31
2017-06-28T04:58:56.222Z,24.35
2017-06-28T05:00:06.423Z,24.4
2017-06-28T05:01:16.421Z,24.32
2017-06-28T05:02:26.643Z,24.37
2017-06-28T05:03:36.243Z,24.45
2017-06-28T05:04:45.858Z,24.53
2017-06-28T05:05:55.781Z,24.57
2017-06-28T05:07:05.810Z,24.6
2017-06-28T05:08:15.731Z,24.64
2017-06-28T05:09:25.040Z,24.67
2017-06-28T05:10:34.649Z,24.67
2017-06-28T05:11:44.862Z,24.77
2017-06-28T05:12:55.199Z,24.84
2017-06-28T05:14:05.178Z,24.71
2017-06-28T05:15:15.415Z,24.85
2017-06-28T05:16:25.329Z,24.85
2017-06-28T05:17:35.270Z,24.78
2017-06-28T05:18:45.279Z,24.93
2017-06-28T05:19:55.511Z,24.95
2017-06-28T05:21:05.458Z,25
2017-06-28T05:22:15.396Z,24.99
2017-06-28T05:23:24.876Z,25.02
2017-06-28T05:24:34.940Z,24.99
2017-06-28T05:25:44.941Z,25.02
2017-06-28T05:26:55.184Z,25.18
2017-06-28T05:28:05.128Z,25.14
2017-06-28T05:29:15.382Z,25.2
2017-06-28T05:30:25.608Z,25.18
2017-06-28T05:31:35.541Z,25.27
2017-06-28T05:32:45.449Z,25.24
2017-06-28T05:33:55.709Z,25.27
2017-06-28T05:35:06.351Z,25.27
2017-06-28T05:36:16.608Z,25.21
2017-06-28T05:37:26.524Z,25.3
2017-06-28T05:38:35.821Z,25.27
2017-06-28T05:39:46.086Z,25.32
2017-06-28T05:40:55.720Z,25.33
2017-06-28T05:42:05.985Z,25.32
2017-06-28T05:43:15.904Z,25.42
2017-06-28T05:44:25.852Z,25.42
2017-06-28T05:45:36.073Z,25.35
2017-06-28T05:46:46.307Z,25.38
2017-06-28T05:47:56.326Z,25.51
2017-06-28T05:49:06.624Z,25.45
2017-06-28T05:50:16.548Z,25.5
2017-06-28T05:51:26.459Z,25.5
2017-06-28T05:52:36.395Z,25.58
2017-06-28T05:53:46.222Z,25.57
2017-06-28T05:54:56.441Z,25.47
2017-06-28T05:56:06.672Z,25.47
2017-06-28T05:57:17.272Z,25.54
2017-06-28T05:58:26.929Z,25.62
2017-06-28T05:59:36.996Z,25.67
2017-06-28T06:00:46.598Z,25.62
2017-06-28T06:01:56.191Z,25.67
2017-06-28T06:03:05.529Z,25.65
2017-06-28T06:04:15.846Z,25.64
2017-06-28T06:05:26.365Z,25.72
2017-06-28T06:06:36.271Z,25.77
2017-06-28T06:07:46.487Z,25.77
2017-06-28T06:08:56.405Z,25.82
2017-06-28T06:10:06.316Z,25.75
2017-06-28T06:11:16.256Z,25.85
2017-06-28T06:12:26.180Z,25.85
2017-06-28T06:13:36.107Z,25.92
2017-06-28T06:14:46.031Z,25.91
2017-06-28T06:15:55.635Z,25.92
2017-06-28T06:17:04.951Z,25.97
2017-06-28T06:18:14.557Z,25.95
2017-06-28T06:19:24.161Z,25.95
2017-06-28T06:20:33.759Z,25.94
2017-06-28T06:21:44.336Z,25.91
2017-06-28T06:22:53.927Z,25.92
2017-06-28T06:24:03.537Z,25.94
2017-06-28T06:25:13.488Z,25.98
2017-06-28T06:26:23.708Z,25.95
2017-06-28T06:27:33.645Z,26.01
2017-06-28T06:28:43.973Z,25.95
2017-06-28T06:29:54.211Z,25.95
2017-06-28T06:31:04.141Z,25.92
2017-06-28T06:32:14.381Z,26.05
2017-06-28T06:33:23.986Z,25.94
2017-06-28T06:34:34.010Z,25.99
2017-06-28T06:35:44.249Z,25.97
2017-06-28T06:36:54.163Z,25.95
2017-06-28T06:38:04.403Z,25.97
2017-06-28T06:39:14.321Z,25.94
2017-06-28T06:40:24.546Z,25.97
2017-06-28T06:41:34.194Z,25.91
2017-06-28T06:42:44.415Z,25.95
2017-06-28T06:43:53.401Z,25.9
2017-06-28T06:45:03.014Z,25.94
2017-06-28T06:46:12.932Z,25.97
2017-06-28T06:47:22.542Z,25.92
2017-06-28T06:48:32.784Z,25.92
2017-06-28T06:49:42.708Z,25.91
2017-06-28T06:50:52.628Z,25.92
2017-06-28T06:52:03.160Z,25.97
2017-06-28T06:53:12.771Z,25.91
2017-06-28T06:54:22.704Z,25.91
2017-06-28T06:55:32.954Z,25.92
2017-06-28T06:56:42.871Z,25.9
2017-06-28T06:57:52.894Z,25.91
2017-06-28T06:59:03.120Z,25.94
2017-06-28T07:00:13.028Z,25.91
2017-06-28T07:01:22.667Z,25.92
2017-06-28T07:02:32.895Z,25.92
2017-06-28T07:03:43.083Z,25.91
2017-06-28T07:04:53.001Z,25.94
2017-06-28T07:06:02.320Z,25.92
2017-06-28T07:07:12.219Z,25.95
2017-06-28T07:08:21.818Z,25.92
2017-06-28T07:09:30.989Z,25.85
2017-06-28T07:10:40.912Z,25.92
2017-06-28T07:11:50.877Z,25.91
2017-06-28T07:13:00.792Z,25.88
2017-06-28T07:14:11.005Z,25.92
2017-06-28T07:15:20.922Z,25.94
2017-06-28T07:16:30.857Z,25.91
2017-06-28T07:17:40.235Z,25.88
2017-06-28T07:18:50.478Z,25.91
2017-06-28T07:20:00.735Z,25.9
2017-06-28T07:21:10.345Z,25.92
2017-06-28T07:22:20.573Z,25.92
2017-06-28T07:23:30.804Z,25.92
2017-06-28T07:24:40.112Z,25.91
2017-06-28T07:25:50.345Z,25.94
2017-06-28T07:27:00.060Z,25.9
2017-06-28T07:28:09.984Z,25.91
2017-06-28T07:29:19.904Z,25.97
2017-06-28T07:30:30.118Z,25.91
2017-06-28T07:31:40.023Z,25.92
2017-06-28T07:32:50.249Z,25.91
2017-06-28T07:34:00.456Z,25.88
2017-06-28T07:35:10.373Z,25.9
2017-06-28T07:36:20.608Z,25.91
2017-06-28T07:37:31.068Z,25.92
2017-06-28T07:38:41.408Z,25.92
2017-06-28T07:39:51.333Z,25.9
2017-06-28T07:41:01.550Z,25.92
2017-06-28T07:42:11.460Z,25.92
2017-06-28T07:43:21.416Z,25.91
2017-06-28T07:44:31.491Z,25.98
2017-06-28T07:45:41.097Z,25.9
2017-06-28T07:46:50.713Z,25.9
2017-06-28T07:48:00.973Z,25.9
2017-06-28T07:49:11.202Z,25.9
2017-06-28T07:50:21.624Z,25.95
2017-06-28T07:51:31.631Z,25.9
2017-06-28T07:52:41.864Z,25.92
2017-06-28T07:53:51.802Z,25.92
2017-06-28T07:55:02.032Z,25.95
2017-06-28T07:56:12.762Z,25.98
2017-06-28T07:57:22.665Z,25.94
2017-06-28T07:58:31.964Z,25.94
2017-06-28T07:59:41.871Z,25.94
2017-06-28T08:00:52.097Z,25.98
2017-06-28T08:02:02.476Z,25.95
2017-06-28T08:03:12.395Z,25.97
2017-06-28T08:04:22.006Z,25.95
2017-06-28T08:05:31.921Z,25.98
2017-06-28T08:06:42.137Z,25.95
2017-06-28T08:07:51.736Z,25.94
2017-06-28T08:09:01.344Z,25.95
2017-06-28T08:10:11.575Z,25.92
2017-06-28T08:11:21.181Z,25.94
2017-06-28T08:12:30.799Z,25.98
2017-06-28T08:13:41.070Z,25.97
2017-06-28T08:14:51.305Z,25.94
2017-06-28T08:16:01.556Z,25.95
2017-06-28T08:17:11.473Z,25.98
2017-06-28T08:18:21.393Z,25.97
2017-06-28T08:19:31.346Z,25.98
2017-06-28T08:20:41.555Z,25.92
2017-06-28T08:21:51.792Z,26.01
2017-06-28T08:23:01.703Z,26.06
2017-06-28T08:24:11.602Z,26.09
2017-06-28T08:25:21.508Z,26.09
2017-06-28T08:26:31.416Z,25.99
2017-06-28T08:27:41.327Z,25.98
2017-06-28T08:28:51.248Z,25.97
2017-06-28T08:30:00.889Z,26.06
2017-06-28T08:31:10.515Z,25.97
2017-06-28T08:32:20.127Z,25.99
2017-06-28T08:33:29.736Z,25.97
2017-06-28T08:34:39.636Z,25.97
2017-06-28T08:35:49.853Z,26.01
2017-06-28T08:36:59.761Z,26.01
2017-06-28T08:38:09.373Z,26.01
2017-06-28T08:39:19.275Z,25.99
2017-06-28T08:40:29.239Z,25.98
2017-06-28T08:41:38.847Z,25.97
2017-06-28T08:42:48.852Z,26.02
2017-06-28T08:43:58.467Z,26.13
2017-06-28T08:45:08.726Z,26.13
2017-06-28T08:46:18.324Z,26.09
2017-06-28T08:47:28.543Z,26.2
2017-06-28T08:48:38.246Z,26.2
2017-06-28T08:49:48.473Z,26.26
2017-06-28T08:50:58.694Z,26.33
2017-06-28T08:52:08.617Z,26.3
2017-06-28T08:53:17.921Z,26.37
2017-06-28T08:54:27.877Z,26.43
2017-06-28T08:55:37.792Z,26.37
2017-06-28T08:56:47.393Z,26.43
2017-06-28T08:57:56.687Z,26.43
2017-06-28T08:59:06.285Z,26.5
2017-06-28T09:00:16.241Z,26.54
2017-06-28T09:01:26.468Z,26.66
2017-06-28T09:02:36.392Z,26.62
2017-06-28T09:03:46.010Z,26.65
2017-06-28T09:04:55.630Z,26.62
2017-06-28T09:06:06.078Z,26.66
2017-06-28T09:07:16.004Z,26.66
2017-06-28T09:08:25.631Z,26.66
2017-06-28T09:09:35.860Z,26.63
2017-06-28T09:10:45.767Z,26.66
2017-06-28T09:11:56.185Z,26.63
2017-06-28T09:13:05.811Z,26.65
2017-06-28T09:14:16.029Z,26.67
2017-06-28T09:15:25.646Z,26.69
2017-06-28T09:16:34.965Z,26.62
2017-06-28T09:17:45.281Z,26.66
2017-06-28T09:18:55.507Z,26.65
2017-06-28T09:20:05.111Z,26.63
2017-06-28T09:21:14.707Z,26.62
2017-06-28T09:22:24.623Z,26.63
2017-06-28T09:23:34.937Z,26.54
2017-06-28T09:24:44.542Z,26.62
2017-06-28T09:25:54.144Z,26.58
2017-06-28T09:27:04.366Z,26.57
2017-06-28T09:28:14.281Z,26.58
2017-06-28T09:29:24.394Z,26.52
2017-06-28T09:30:34.615Z,26.55
2017-06-28T09:31:44.836Z,26.57
2017-06-28T09:32:54.447Z,26.6
2017-06-28T09:34:04.663Z,26.55
2017-06-28T09:35:14.679Z,26.6
2017-06-28T09:36:24.310Z,26.57
2017-06-28T09:37:34.523Z,26.54
2017-06-28T09:38:44.743Z,26.52
2017-06-28T09:39:54.052Z,26.54
2017-06-28T09:41:04.278Z,26.57
2017-06-28T09:42:14.496Z,26.6
2017-06-28T09:43:24.710Z,26.6
2017-06-28T09:44:34.016Z,26.62
2017-06-28T09:45:43.927Z,26.58
2017-06-28T09:46:54.154Z,26.58
2017-06-28T09:48:04.163Z,26.57
2017-06-28T09:49:13.777Z,26.55
2017-06-28T09:50:23.703Z,26.5
2017-06-28T09:51:33.614Z,26.62
2017-06-28T09:52:43.508Z,26.51
2017-06-28T09:53:53.437Z,26.6
2017-06-28T09:55:03.066Z,26.54
2017-06-28T09:56:13.283Z,26.52
2017-06-28T09:57:22.901Z,26.6
2017-06-28T09:58:33.472Z,26.55
2017-06-28T09:59:43.101Z,26.62
2017-06-28T10:00:53.336Z,26.65
2017-06-28T10:02:03.565Z,26.66
2017-06-28T10:03:12.862Z,26.75
2017-06-28T10:04:22.520Z,26.72
2017-06-28T10:05:32.437Z,26.72
2017-06-28T10:06:42.660Z,26.8
2017-06-28T10:07:51.981Z,26.75
2017-06-28T10:09:02.204Z,26.72
2017-06-28T10:10:12.131Z,26.77
2017-06-28T10:11:21.735Z,26.87
2017-06-28T10:12:31.641Z,26.87
2017-06-28T10:13:40.966Z,26.88
2017-06-28T10:14:50.906Z,26.87
2017-06-28T10:16:00.578Z,26.85
2017-06-28T10:17:10.516Z,26.81
2017-06-28T10:18:19.835Z,26.87
2017-06-28T10:19:29.453Z,26.82
2017-06-28T10:20:39.685Z,26.85
2017-06-28T10:21:50.021Z,26.88
2017-06-28T10:22:59.947Z,26.87
2017-06-28T10:24:09.873Z,26.87
2017-06-28T10:25:19.792Z,26.87
2017-06-28T10:26:30.016Z,26.82
2017-06-28T10:27:39.729Z,26.88
2017-06-28T10:28:49.651Z,26.82
2017-06-28T10:29:59.878Z,26.82
2017-06-28T10:31:09.792Z,26.87
2017-06-28T10:32:20.017Z,26.85
2017-06-28T10:33:30.343Z,26.81
2017-06-28T10:34:40.263Z,26.87
2017-06-28T10:35:49.861Z,26.88
2017-06-28T10:37:00.079Z,26.89
2017-06-28T10:38:10.312Z,26.87
2017-06-28T10:39:20.237Z,26.85
2017-06-28T10:40:30.507Z,26.87
2017-06-28T10:41:40.138Z,26.89
2017-06-28T10:42:50.370Z,26.88
2017-06-28T10:44:00.278Z,26.91
2017-06-28T10:45:09.905Z,26.84
2017-06-28T10:46:20.117Z,26.87
2017-06-28T10:47:30.029Z,26.8
2017-06-28T10:48:40.253Z,26.8
2017-06-28T10:49:49.860Z,26.85
2017-06-28T10:50:59.784Z,26.8
2017-06-28T10:52:09.692Z,26.89
2017-06-28T10:53:19.927Z,26.81
2017-06-28T10:54:30.146Z,26.76
2017-06-28T10:55:39.738Z,26.82
2017-06-28T10:56:50.081Z,26.8
2017-06-28T10:57:59.690Z,26.81
2017-06-28T10:59:09.906Z,26.73
2017-06-28T11:00:19.505Z,26.8
2017-06-28T11:01:29.413Z,26.69
2017-06-28T11:02:39.382Z,26.72
2017-06-28T11:03:49.633Z,26.66
2017-06-28T11:04:59.287Z,26.72
2017-06-28T11:06:09.196Z,26.82
2017-06-28T11:07:19.439Z,26.72
2017-06-28T11:08:29.381Z,26.73
2017-06-28T11:09:39.621Z,26.72
2017-06-28T11:10:49.230Z,26.73
2017-06-28T11:11:59.449Z,26.75
2017-06-28T11:13:09.677Z,26.76
2017-06-28T11:14:19.954Z,26.8
2017-06-28T11:15:30.182Z,26.7
2017-06-28T11:16:40.421Z,26.75
2017-06-28T11:17:50.367Z,26.73
2017-06-28T11:18:59.696Z,26.73
2017-06-28T11:20:09.712Z,26.76
2017-06-28T11:21:19.043Z,26.66
2017-06-28T11:22:28.976Z,26.67
2017-06-28T11:23:38.590Z,26.63
2017-06-28T11:24:48.507Z,26.66
2017-06-28T11:25:59.089Z,26.67
2017-06-28T11:27:08.733Z,26.76
2017-06-28T11:28:18.669Z,26.77
2017-06-28T11:29:28.585Z,26.7
2017-06-28T11:30:38.817Z,26.75
2017-06-28T11:31:48.241Z,26.76
2017-06-28T11:32:58.457Z,26.73
2017-06-28T11:34:08.121Z,26.72
2017-06-28T11:35:18.354Z,26.72
2017-06-28T11:36:28.282Z,26.65
2017-06-28T11:37:38.607Z,26.62
2017-06-28T11:38:48.533Z,26.66
2017-06-28T11:39:58.183Z,26.63
2017-06-28T11:41:08.406Z,26.63
2017-06-28T11:42:18.635Z,26.62
2017-06-28T11:43:29.071Z,26.62
2017-06-28T11:44:39.286Z,26.7
2017-06-28T11:45:49.516Z,26.6
2017-06-28T11:46:59.112Z,26.58
2017-06-28T11:48:08.726Z,26.67
2017-06-28T11:49:18.656Z,26.65
2017-06-28T11:50:28.262Z,26.65
2017-06-28T11:51:37.249Z,26.66
2017-06-28T11:52:47.473Z,26.65
2017-06-28T11:53:57.092Z,26.66
2017-06-28T11:55:07.104Z,26.67
2017-06-28T11:56:17.024Z,26.63
2017-06-28T11:57:26.931Z,26.66
2017-06-28T11:58:36.856Z,26.66
2017-06-28T11:59:46.777Z,26.63
2017-06-28T12:00:56.891Z,26.7
2017-06-28T12:02:06.804Z,26.57
2017-06-28T12:03:16.715Z,26.65
2017-06-28T12:04:26.006Z,26.6
2017-06-28T12:05:36.232Z,26.55
2017-06-28T12:06:46.051Z,26.6
2017-06-28T12:07:55.659Z,26.54
2017-06-28T12:09:05.868Z,26.52
2017-06-28T12:10:15.807Z,26.54
2017-06-28T12:11:26.025Z,26.55
2017-06-28T12:12:36.301Z,26.52
2017-06-28T12:13:45.912Z,26.47
2017-06-28T12:14:55.526Z,26.55
2017-06-28T12:16:05.443Z,26.47
2017-06-28T12:17:15.345Z,26.48
2017-06-28T12:18:25.666Z,26.48
2017-06-28T12:19:35.584Z,26.47
2017-06-28T12:20:45.543Z,26.45
2017-06-28T12:21:55.466Z,26.43
2017-06-28T12:23:05.076Z,26.47
2017-06-28T12:24:14.984Z,26.52
2017-06-28T12:25:25.213Z,26.51
2017-06-28T12:26:35.132Z,26.45
2017-06-28T12:27:45.040Z,26.44
2017-06-28T12:28:54.652Z,26.4
2017-06-28T12:30:04.362Z,26.48
2017-06-28T12:31:13.962Z,26.47
2017-06-28T12:32:24.201Z,26.48
2017-06-28T12:33:34.119Z,26.48
2017-06-28T12:34:43.722Z,26.4
2017-06-28T12:35:53.745Z,26.43
2017-06-28T12:37:03.348Z,26.52
2017-06-28T12:38:13.339Z,26.55
2017-06-28T12:39:22.966Z,26.48
2017-06-28T12:40:32.644Z,26.55
2017-06-28T12:41:42.570Z,26.54
2017-06-28T12:42:52.784Z,26.5
2017-06-28T12:44:02.726Z,26.54
2017-06-28T12:45:12.020Z,26.5
2017-06-28T12:46:21.622Z,26.52
2017-06-28T12:47:31.621Z,26.51
2017-06-28T12:48:41.238Z,26.54
2017-06-28T12:49:51.468Z,26.55
2017-06-28T12:51:01.381Z,26.57
2017-06-28T12:52:10.983Z,26.54
2017-06-28T12:53:20.885Z,26.63
2017-06-28T12:54:30.502Z,26.57
2017-06-28T12:55:40.437Z,26.5
2017-06-28T12:56:50.683Z,26.63
2017-06-28T12:58:00.584Z,26.55
2017-06-28T12:59:10.967Z,26.55
2017-06-28T13:00:20.903Z,26.51
2017-06-28T13:01:31.140Z,26.54
2017-06-28T13:02:41.046Z,26.57
2017-06-28T13:03:51.287Z,26.65
2017-06-28T13:05:00.902Z,26.63
2017-06-28T13:06:09.893Z,26.65
2017-06-28T13:07:19.502Z,26.65
2017-06-28T13:08:29.481Z,26.6
2017-06-28T13:09:39.390Z,26.63
2017-06-28T13:10:49.066Z,26.65
2017-06-28T13:11:58.973Z,26.65
2017-06-28T13:13:08.585Z,26.66
2017-06-28T13:14:18.492Z,26.69
2017-06-28T13:15:28.407Z,26.67
2017-06-28T13:16:38.675Z,26.67
2017-06-28T13:17:48.896Z,26.69
2017-06-28T13:18:58.507Z,26.66
2017-06-28T13:20:08.713Z,26.7
2017-06-28T13:21:18.937Z,26.67
2017-06-28T13:22:28.892Z,26.66
2017-06-28T13:23:38.799Z,26.63
2017-06-28T13:24:49.045Z,26.63
2017-06-28T13:25:58.984Z,26.65
2017-06-28T13:27:09.223Z,26.66
2017-06-28T13:28:18.877Z,26.67
2017-06-28T13:29:28.506Z,26.69
2017-06-28T13:30:38.420Z,26.67
2017-06-28T13:31:48.033Z,26.7
2017-06-28T13:32:57.951Z,26.66
2017-06-28T13:34:07.963Z,26.67
2017-06-28T13:35:17.879Z,26.65
2017-06-28T13:36:27.784Z,26.65
2017-06-28T13:37:37.690Z,26.65
2017-06-28T13:38:47.929Z,26.77
2017-06-28T13:39:57.221Z,26.66
2017-06-28T13:41:06.880Z,26.65
2017-06-28T13:42:15.868Z,26.75
2017-06-28T13:43:25.786Z,26.75
2017-06-28T13:44:35.128Z,26.69
2017-06-28T13:45:45.360Z,26.73
2017-06-28T13:46:54.982Z,26.77
2017-06-28T13:48:04.602Z,26.73
2017-06-28T13:49:14.839Z,26.75
2017-06-28T13:50:24.756Z,26.75
2017-06-28T13:51:34.474Z,26.73
2017-06-28T13:52:44.410Z,26.73
2017-06-28T13:53:54.015Z,26.73
2017-06-28T13:55:03.923Z,26.73
2017-06-28T13:56:13.522Z,26.69
2017-06-28T13:57:23.553Z,26.73
2017-06-28T13:58:33.773Z,26.72
2017-06-28T13:59:43.121Z,26.73
2017-06-28T14:00:53.042Z,26.66
2017-06-28T14:02:03.267Z,26.69
2017-06-28T14:03:13.496Z,26.7
2017-06-28T14:04:23.429Z,26.73
2017-06-28T14:05:33.366Z,26.75
2017-06-28T14:06:43.622Z,26.58
2017-06-28T14:07:53.548Z,26.6
2017-06-28T14:09:03.918Z,26.66
2017-06-28T14:10:13.842Z,26.7
2017-06-28T14:11:24.067Z,26.66
2017-06-28T14:12:33.979Z,26.62
2017-06-28T14:13:43.896Z,26.62
2017-06-28T14:14:53.865Z,26.54
2017-06-28T14:16:03.507Z,26.54
2017-06-28T14:17:13.154Z,26.55
2017-06-28T14:18:23.081Z,26.54
2017-06-28T14:19:32.995Z,26.57
2017-06-28T14:20:42.697Z,26.54
2017-06-28T14:21:52.309Z,26.47
2017-06-28T14:23:02.544Z,26.5
2017-06-28T14:24:12.462Z,26.55
2017-06-28T14:25:22.687Z,26.51
2017-06-28T14:26:33.008Z,26.54
2017-06-28T14:27:42.920Z,26.57
2017-06-28T14:28:52.855Z,26.54
2017-06-28T14:30:02.489Z,26.6
2017-06-28T14:31:12.415Z,26.6
2017-06-28T14:32:21.805Z,26.6
2017-06-28T14:33:31.730Z,26.54
2017-06-28T14:34:41.635Z,26.57
2017-06-28T14:35:51.555Z,26.58
2017-06-28T14:37:01.465Z,26.62
2017-06-28T14:38:11.378Z,26.62
2017-06-28T14:39:21.005Z,26.65
2017-06-28T14:40:29.997Z,26.7
2017-06-28T14:41:39.282Z,26.65
2017-06-28T14:42:48.893Z,26.65
2017-06-28T14:43:58.554Z,26.65
2017-06-28T14:45:08.467Z,26.6
2017-06-28T14:46:18.076Z,26.66
2017-06-28T14:47:27.077Z,26.57
2017-06-28T14:48:37.282Z,26.58
2017-06-28T14:49:47.247Z,26.6
2017-06-28T14:50:57.471Z,26.65
2017-06-28T14:52:07.389Z,26.6
2017-06-28T14:53:17.604Z,26.63
2017-06-28T14:54:27.520Z,26.66
2017-06-28T14:55:37.771Z,26.67
2017-06-28T14:56:47.388Z,26.63
2017-06-28T14:57:57.309Z,26.58
2017-06-28T14:59:07.224Z,26.6
2017-06-28T15:00:17.138Z,26.58
2017-06-28T15:01:26.433Z,26.65
2017-06-28T15:02:36.649Z,26.62
2017-06-28T15:03:46.873Z,26.65
2017-06-28T15:04:56.784Z,26.62
2017-06-28T15:06:06.381Z,26.6